Time;durP1;ratioP1;P1;durP2;ratioP2;P2;SDS_P1;SDS_P2;PMS_P1;PMS_P2;Temp;Humidity;BMP_temperature;BMP_pressure;BME280_temperature;BME280_humidity;BME280_pressure;Samples;Min_cycle;Max_cycle;Signal;HPM_P1;HPM_P2
2021/03/08 00:00:41;;;;;;;21.75;8.77;;;14.50;62.50;;;;;;6150609;29;20058;-77
2021/03/08 00:03:42;;;;;;;24.00;7.68;;;14.50;61.60;;;;;;6117924;29;20035;-76
2021/03/08 00:06:44;;;;;;;18.00;8.63;;;14.50;61.40;;;;;;6118994;28;20324;-76
2021/03/08 00:09:45;;;;;;;29.52;9.65;;;14.50;61.40;;;;;;6144440;28;20035;-76
2021/03/08 00:12:48;;;;;;;20.50;9.75;;;14.40;61.40;;;;;;6147490;28;20429;-76
2021/03/08 00:15:49;;;;;;;17.80;7.85;;;14.40;61.40;;;;;;6132030;29;20114;-76
2021/03/08 00:18:50;;;;;;;20.38;7.47;;;14.40;61.40;;;;;;6138459;29;20442;-76
2021/03/08 00:21:52;;;;;;;15.98;7.47;;;14.30;61.40;;;;;;6150415;28;20201;-76
2021/03/08 00:24:52;;;;;;;21.80;8.32;;;14.30;61.40;;;;;;6129871;29;20039;-77
2021/03/08 00:27:53;;;;;;;17.83;7.05;;;14.30;61.30;;;;;;6137573;29;20468;-77
2021/03/08 00:30:54;;;;;;;29.08;8.75;;;14.30;61.30;;;;;;6116473;28;20380;-77
2021/03/08 00:33:55;;;;;;;21.60;8.27;;;14.30;61.40;;;;;;6135872;29;20027;-77
2021/03/08 00:36:56;;;;;;;18.92;8.02;;;14.30;61.40;;;;;;6116579;28;20035;-77
2021/03/08 00:40:11;;;;;;;17.50;6.80;;;14.30;61.40;;;;;;6143405;28;20485;-77
2021/03/08 00:43:12;;;;;;;23.08;7.70;;;14.30;61.40;;;;;;6115431;29;20039;-77
2021/03/08 00:46:13;;;;;;;19.92;6.90;;;14.30;61.20;;;;;;6116800;29;20538;-78
2021/03/08 00:49:13;;;;;;;17.67;6.43;;;14.30;61.20;;;;;;6149442;28;20054;-76
2021/03/08 00:52:14;;;;;;;17.77;6.75;;;14.30;61.20;;;;;;6115948;28;20102;-77
2021/03/08 00:55:16;;;;;;;19.30;6.72;;;14.20;61.10;;;;;;6131463;28;20035;-77
2021/03/08 00:58:18;;;;;;;20.60;6.53;;;14.20;61.10;;;;;;6131188;29;20039;-77
2021/03/08 01:01:19;;;;;;;16.25;7.07;;;14.30;61.20;;;;;;6132185;28;20039;-76
2021/03/08 01:04:22;;;;;;;15.43;6.80;;;14.30;61.00;;;;;;6117796;28;20380;-76
2021/03/08 01:07:22;;;;;;;21.48;6.60;;;14.30;60.90;;;;;;6124286;29;20039;-76
2021/03/08 01:10:29;;;;;;;15.52;6.25;;;14.30;60.90;;;;;;6117190;28;20099;-77
2021/03/08 01:13:32;;;;;;;29.98;7.65;;;14.30;61.60;;;;;;6127159;29;20384;-77
2021/03/08 01:16:33;;;;;;;14.98;6.97;;;14.30;60.70;;;;;;6149162;28;20406;-77
2021/03/08 01:19:34;;;;;;;17.65;7.45;;;14.40;60.70;;;;;;6115638;29;20028;-76
2021/03/08 01:22:35;;;;;;;16.00;7.05;;;14.30;60.80;;;;;;6104541;28;20043;-77
2021/03/08 01:25:36;;;;;;;15.98;6.70;;;14.30;60.80;;;;;;6166615;28;20027;-77
2021/03/08 01:28:37;;;;;;;22.85;7.65;;;14.30;61.00;;;;;;6158736;28;20042;-77
2021/03/08 01:31:39;;;;;;;19.35;7.30;;;14.30;61.10;;;;;;6145869;28;20035;-77
2021/03/08 01:34:40;;;;;;;16.70;7.50;;;14.30;61.20;;;;;;6121971;28;20039;-77
2021/03/08 01:37:41;;;;;;;16.38;7.10;;;14.30;61.30;;;;;;6146974;28;20053;-77
2021/03/08 01:40:43;;;;;;;18.83;7.60;;;14.30;61.40;;;;;;6154492;28;20043;-77
2021/03/08 01:43:44;;;;;;;14.75;6.93;;;14.20;61.40;;;;;;6151289;28;20091;-77
2021/03/08 01:46:45;;;;;;;14.77;6.80;;;14.30;61.60;;;;;;6107527;29;20043;-77
2021/03/08 01:49:46;;;;;;;22.17;6.60;;;14.20;61.60;;;;;;6131793;28;20098;-76
2021/03/08 01:52:47;;;;;;;14.77;6.07;;;14.20;61.70;;;;;;6132374;28;20211;-76
2021/03/08 01:55:48;;;;;;;25.55;7.13;;;14.10;61.60;;;;;;6136172;29;20039;-76
2021/03/08 01:58:50;;;;;;;18.98;7.30;;;14.10;61.70;;;;;;6129912;28;20097;-76
2021/03/08 02:01:50;;;;;;;14.88;6.68;;;14.10;61.90;;;;;;6152549;28;20090;-76
2021/03/08 02:04:51;;;;;;;16.20;6.47;;;14.00;62.00;;;;;;6134809;28;20051;-76
2021/03/08 02:07:54;;;;;;;23.23;6.72;;;14.00;62.20;;;;;;6129857;28;20035;-77
2021/03/08 02:10:54;;;;;;;17.65;7.00;;;13.90;62.30;;;;;;6138553;29;20465;-76
2021/03/08 02:14:39;;;;;;;22.48;7.22;;;13.80;62.30;;;;;;6135944;28;20043;-76
2021/03/08 02:18:12;;;;;;;18.27;6.38;;;13.80;62.60;;;;;;6136465;29;20039;-77
2021/03/08 02:21:19;;;;;;;23.25;7.55;;;13.80;62.60;;;;;;6031485;29;20048;-77
2021/03/08 02:24:26;;;;;;;20.10;8.57;;;13.70;62.50;;;;;;6033462;29;20157;-76
2021/03/08 02:27:42;;;;;;;20.80;8.98;;;13.70;62.70;;;;;;6035305;29;20132;-76
2021/03/08 02:30:51;;;;;;;19.23;8.57;;;13.70;63.00;;;;;;6043464;29;20124;-76
2021/03/08 02:33:59;;;;;;;23.00;9.57;;;13.60;63.10;;;;;;6036344;29;20050;-77
2021/03/08 02:37:11;;;;;;;25.58;9.00;;;13.60;63.30;;;;;;6033829;29;20063;-76
2021/03/08 02:40:19;;;;;;;19.25;9.13;;;13.60;63.50;;;;;;6036369;29;20080;-76
2021/03/08 02:43:34;;;;;;;23.25;9.38;;;13.50;63.60;;;;;;6035556;29;20041;-76
2021/03/08 02:46:37;;;;;;;21.35;9.55;;;13.60;63.70;;;;;;6050217;29;20359;-76
2021/03/08 02:49:41;;;;;;;24.38;9.45;;;13.60;63.60;;;;;;6022367;29;20056;-76
2021/03/08 02:52:56;;;;;;;22.70;9.13;;;13.60;63.80;;;;;;6028468;29;20045;-76
2021/03/08 02:56:05;;;;;;;26.20;10.05;;;13.60;63.80;;;;;;6034034;29;20119;-77
2021/03/08 02:59:09;;;;;;;22.10;9.75;;;13.60;63.80;;;;;;6122850;29;20035;-76
2021/03/08 03:02:11;;;;;;;16.83;8.77;;;13.60;63.70;;;;;;6135222;29;20469;-77
2021/03/08 03:05:14;;;;;;;18.77;8.63;;;13.70;63.50;;;;;;6133820;28;20043;-77
2021/03/08 03:08:17;;;;;;;21.65;8.00;;;13.70;63.40;;;;;;6128488;28;20509;-76
2021/03/08 03:11:19;;;;;;;19.95;8.02;;;13.80;63.30;;;;;;6114001;29;20477;-77
2021/03/08 03:14:22;;;;;;;20.63;8.05;;;13.80;63.10;;;;;;6150973;29;20046;-76
2021/03/08 03:17:24;;;;;;;17.85;7.80;;;13.80;63.00;;;;;;6134976;29;20042;-76
2021/03/08 03:20:27;;;;;;;25.98;7.45;;;13.80;62.80;;;;;;6133294;29;20038;-76
2021/03/08 03:23:29;;;;;;;21.77;8.35;;;13.80;62.70;;;;;;6112564;29;20031;-76
2021/03/08 03:26:31;;;;;;;17.30;8.35;;;13.80;62.60;;;;;;6134835;29;20035;-76
2021/03/08 03:29:37;;;;;;;14.75;7.43;;;13.80;62.50;;;;;;6109646;29;20086;-76
2021/03/08 03:32:39;;;;;;;18.55;7.22;;;13.80;62.40;;;;;;6134239;29;20127;-77
2021/03/08 03:35:40;;;;;;;16.25;6.32;;;13.90;62.20;;;;;;6134940;29;20035;-78
2021/03/08 03:38:43;;;;;;;16.45;5.85;;;13.90;62.00;;;;;;6134385;29;20134;-76
2021/03/08 03:41:44;;;;;;;12.13;5.97;;;13.90;61.90;;;;;;6134186;29;20038;-76
2021/03/08 03:44:46;;;;;;;13.48;5.68;;;13.90;61.70;;;;;;6133992;28;20035;-76
2021/03/08 03:47:48;;;;;;;17.48;6.85;;;13.90;61.70;;;;;;6136346;28;20047;-76
2021/03/08 03:50:49;;;;;;;19.63;8.00;;;13.90;61.60;;;;;;6112269;29;20053;-76
2021/03/08 03:53:50;;;;;;;21.50;8.10;;;13.90;61.50;;;;;;6113009;29;20035;-76
2021/03/08 03:56:58;;;;;;;18.50;8.20;;;13.90;61.50;;;;;;6150625;29;20444;-78
2021/03/08 04:00:01;;;;;;;18.52;7.72;;;13.80;61.40;;;;;;6132898;29;20054;-77
2021/03/08 04:03:08;;;;;;;20.83;7.53;;;13.80;61.40;;;;;;6149720;28;20148;-77
2021/03/08 04:06:10;;;;;;;28.25;8.95;;;13.80;62.40;;;;;;6134893;28;20058;-77
2021/03/08 04:09:12;;;;;;;24.15;8.68;;;13.70;61.70;;;;;;6149462;28;20205;-77
2021/03/08 04:12:13;;;;;;;20.42;8.95;;;13.70;62.00;;;;;;6134117;28;20118;-77
2021/03/08 04:15:16;;;;;;;20.38;7.88;;;13.70;62.10;;;;;;6148977;28;20043;-76
2021/03/08 04:18:18;;;;;;;18.30;7.25;;;13.70;62.10;;;;;;6150755;28;20043;-77
2021/03/08 04:21:20;;;;;;;19.73;5.75;;;13.80;62.00;;;;;;6138085;29;20051;-77
2021/03/08 04:24:21;;;;;;;11.82;5.68;;;13.80;61.90;;;;;;6133855;28;20039;-77
2021/03/08 04:27:23;;;;;;;19.05;5.72;;;13.80;61.80;;;;;;6150141;28;20051;-77
2021/03/08 04:30:25;;;;;;;16.58;6.40;;;13.90;61.70;;;;;;6149093;28;20345;-77
2021/03/08 04:33:28;;;;;;;19.42;7.07;;;13.90;61.60;;;;;;6139458;28;20535;-77
2021/03/08 04:36:29;;;;;;;18.52;6.72;;;13.90;61.60;;;;;;6147605;28;20039;-77
2021/03/08 04:39:34;;;;;;;16.10;6.78;;;13.90;61.50;;;;;;6133111;28;20095;-77
2021/03/08 04:42:37;;;;;;;15.98;6.90;;;13.90;61.40;;;;;;6133367;29;20062;-76
2021/03/08 04:45:40;;;;;;;12.55;6.28;;;13.90;61.30;;;;;;6133418;29;20035;-76
2021/03/08 04:48:41;;;;;;;16.45;6.82;;;13.90;61.10;;;;;;6137908;29;20066;-76
2021/03/08 04:51:44;;;;;;;17.85;6.88;;;13.90;61.00;;;;;;6123860;29;20027;-76
2021/03/08 04:54:46;;;;;;;23.33;6.18;;;13.90;61.00;;;;;;6135312;29;20048;-75
2021/03/08 04:57:47;;;;;;;15.50;6.82;;;14.00;61.00;;;;;;6132087;28;20035;-76
2021/03/08 05:00:48;;;;;;;20.80;7.50;;;14.00;61.10;;;;;;6133920;29;20090;-77
2021/03/08 05:03:52;;;;;;;21.10;7.70;;;14.00;61.10;;;;;;6139018;29;20039;-77
2021/03/08 05:06:53;;;;;;;25.65;8.00;;;13.90;61.00;;;;;;6133592;28;20094;-76
2021/03/08 05:09:55;;;;;;;20.63;8.90;;;13.90;61.10;;;;;;6111000;29;20043;-76
2021/03/08 05:12:58;;;;;;;20.45;8.60;;;13.90;61.10;;;;;;6133615;28;20385;-77
2021/03/08 05:16:01;;;;;;;21.65;8.05;;;13.90;61.30;;;;;;6138746;29;20118;-75
2021/03/08 05:19:04;;;;;;;25.02;8.90;;;13.90;61.30;;;;;;6119915;28;20040;-77
2021/03/08 05:22:06;;;;;;;22.25;8.07;;;14.00;61.40;;;;;;6136463;29;20050;-76
2021/03/08 05:25:08;;;;;;;30.10;9.43;;;14.00;61.40;;;;;;6132921;29;20039;-76
2021/03/08 05:28:13;;;;;;;23.25;9.13;;;14.00;61.40;;;;;;6132791;28;20039;-76
2021/03/08 05:31:14;;;;;;;25.35;8.80;;;14.00;61.30;;;;;;6136359;28;20039;-76
2021/03/08 05:34:18;;;;;;;17.58;8.00;;;14.00;61.30;;;;;;6141643;28;20479;-76
2021/03/08 05:37:21;;;;;;;22.23;8.15;;;14.00;62.20;;;;;;6131561;29;20039;-76
2021/03/08 05:40:33;;;;;;;17.45;7.32;;;14.00;61.40;;;;;;6152515;28;20058;-77
2021/03/08 05:43:36;;;;;;;16.45;6.68;;;14.00;61.40;;;;;;6153440;29;20039;-76
2021/03/08 05:46:40;;;;;;;14.80;6.55;;;14.00;61.40;;;;;;6136434;28;20043;-75
2021/03/08 05:49:59;;;;;;;15.73;6.05;;;14.00;61.40;;;;;;6153547;29;20028;-75
2021/03/08 05:53:16;;;;;;;21.55;6.50;;;14.00;61.40;;;;;;6134685;29;20041;-75
2021/03/08 05:56:23;;;;;;;11.35;6.10;;;14.00;61.40;;;;;;6152148;29;20066;-76
2021/03/08 05:59:53;;;;;;;17.17;6.78;;;14.00;61.40;;;;;;6134708;29;20030;-76
2021/03/08 06:03:19;;;;;;;19.65;6.65;;;14.00;61.50;;;;;;6135624;28;20090;-76
2021/03/08 06:06:40;;;;;;;26.15;7.75;;;14.00;61.30;;;;;;6138607;28;20118;-78
2021/03/08 06:10:02;;;;;;;21.00;7.82;;;14.00;61.10;;;;;;6133748;28;20035;-78
2021/03/08 06:13:10;;;;;;;19.92;9.25;;;14.00;61.20;;;;;;6138589;29;20031;-76
2021/03/08 06:16:17;;;;;;;21.45;9.02;;;14.00;61.20;;;;;;6138301;28;20049;-77
2021/03/08 06:19:19;;;;;;;24.90;8.70;;;14.00;61.30;;;;;;6106620;28;20031;-76
2021/03/08 06:22:21;;;;;;;18.60;8.00;;;14.00;61.30;;;;;;6123459;29;20472;-76
2021/03/08 06:25:22;;;;;;;18.63;8.82;;;14.00;61.30;;;;;;6136435;29;20039;-76
2021/03/08 06:28:24;;;;;;;19.63;8.73;;;14.10;61.40;;;;;;6144519;29;20034;-77
2021/03/08 06:31:26;;;;;;;25.77;8.30;;;14.10;61.50;;;;;;6135264;29;20032;-76
2021/03/08 06:34:26;;;;;;;21.25;9.15;;;14.10;61.40;;;;;;6125092;28;20065;-76
2021/03/08 06:37:28;;;;;;;22.05;9.38;;;14.10;61.40;;;;;;6147984;28;20028;-77
2021/03/08 06:40:30;;;;;;;23.95;9.07;;;14.10;61.30;;;;;;6129872;28;20036;-77
2021/03/08 06:43:31;;;;;;;25.30;9.23;;;14.10;61.20;;;;;;6128136;29;20169;-77
2021/03/08 06:46:33;;;;;;;22.23;8.77;;;14.10;61.30;;;;;;6113580;29;20429;-77
2021/03/08 06:49:35;;;;;;;27.70;9.07;;;14.10;61.20;;;;;;6130324;28;20115;-77
2021/03/08 06:52:41;;;;;;;21.35;9.65;;;14.10;61.10;;;;;;6128650;29;20038;-77
2021/03/08 06:55:42;;;;;;;36.25;9.20;;;14.10;61.10;;;;;;6140943;29;20039;-78
2021/03/08 06:59:01;;;;;;;20.02;8.95;;;14.10;61.00;;;;;;6131643;29;20475;-76
2021/03/08 07:02:03;;;;;;;19.67;8.75;;;14.10;61.00;;;;;;6130235;29;20079;-77
2021/03/08 07:05:04;;;;;;;20.98;7.40;;;14.10;60.90;;;;;;6146747;29;20070;-76
2021/03/08 07:08:05;;;;;;;30.00;8.80;;;14.10;60.90;;;;;;6114268;28;20122;-77
2021/03/08 07:11:17;;;;;;;16.83;7.43;;;14.20;60.90;;;;;;6129131;29;20047;-76
2021/03/08 07:14:21;;;;;;;19.63;8.02;;;14.20;60.80;;;;;;6131225;29;20058;-76
2021/03/08 07:17:36;;;;;;;23.95;8.25;;;14.20;60.70;;;;;;6131471;29;20187;-76
2021/03/08 07:20:37;;;;;;;19.90;7.70;;;14.20;60.70;;;;;;6149637;29;20043;-76
2021/03/08 07:23:40;;;;;;;21.85;8.30;;;14.30;60.50;;;;;;6116249;29;20039;-76
2021/03/08 07:26:53;;;;;;;21.52;8.95;;;14.30;60.00;;;;;;6148916;29;20039;-77
2021/03/08 07:30:15;;;;;;;17.20;8.00;;;14.30;59.80;;;;;;6146295;29;20031;-77
2021/03/08 07:33:16;;;;;;;19.23;8.48;;;14.30;59.80;;;;;;6109874;29;20032;-76
2021/03/08 07:36:17;;;;;;;22.98;7.63;;;14.30;59.70;;;;;;6148369;28;20027;-77
2021/03/08 07:39:18;;;;;;;23.60;8.05;;;14.30;59.60;;;;;;6112217;28;20036;-77
2021/03/08 07:42:19;;;;;;;18.33;8.80;;;14.40;59.50;;;;;;6106194;29;20039;-78
2021/03/08 07:45:23;;;;;;;21.00;8.05;;;14.50;59.40;;;;;;6131412;28;20093;-77
2021/03/08 07:48:26;;;;;;;21.30;8.40;;;14.50;59.40;;;;;;6149504;29;20369;-78
2021/03/08 07:51:27;;;;;;;16.73;7.85;;;14.50;59.40;;;;;;6149393;28;20032;-78
2021/03/08 07:54:29;;;;;;;18.70;7.60;;;14.50;59.30;;;;;;6116891;29;20063;-78
2021/03/08 07:57:30;;;;;;;18.90;8.18;;;14.50;59.10;;;;;;6149200;29;20118;-77
2021/03/08 08:00:31;;;;;;;21.67;7.93;;;14.50;59.10;;;;;;6149045;28;20421;-76
2021/03/08 08:03:36;;;;;;;24.40;8.43;;;14.50;59.20;;;;;;6146040;28;20035;-77
2021/03/08 08:06:38;;;;;;;26.73;8.93;;;14.60;59.10;;;;;;6135845;28;20055;-77
2021/03/08 08:09:43;;;;;;;23.95;9.82;;;14.50;59.60;;;;;;6137780;29;20461;-77
2021/03/08 08:12:49;;;;;;;22.60;9.43;;;14.50;59.10;;;;;;6132280;29;20027;-77
2021/03/08 08:15:51;;;;;;;23.40;9.93;;;14.60;59.20;;;;;;6131926;28;20070;-78
2021/03/08 08:19:00;;;;;;;28.20;10.57;;;14.70;59.10;;;;;;6132382;29;20044;-77
2021/03/08 08:22:02;;;;;;;18.20;8.50;;;14.70;58.90;;;;;;6126002;29;20522;-78
2021/03/08 08:25:05;;;;;;;24.55;9.70;;;14.80;58.70;;;;;;6111665;29;20086;-77
2021/03/08 08:28:07;;;;;;;19.85;9.27;;;14.80;58.40;;;;;;6115704;29;20043;-77
2021/03/08 08:31:09;;;;;;;41.70;13.63;;;14.90;58.30;;;;;;6131754;28;20330;-77
2021/03/08 08:34:29;;;;;;;34.90;11.68;;;15.00;58.20;;;;;;6130978;29;20192;-77
2021/03/08 08:37:30;;;;;;;27.10;10.27;;;15.00;58.00;;;;;;6131840;28;20110;-78
2021/03/08 08:40:39;;;;;;;24.33;10.63;;;15.00;57.80;;;;;;6115315;29;20405;-77
2021/03/08 08:43:40;;;;;;;24.08;10.43;;;15.10;57.70;;;;;;6126061;29;20093;-77
2021/03/08 08:46:45;;;;;;;25.15;11.20;;;15.20;57.60;;;;;;6130835;29;20082;-77
2021/03/08 08:49:53;;;;;;;24.10;10.25;;;15.30;57.40;;;;;;6130715;28;20035;-77
2021/03/08 08:52:56;;;;;;;27.27;10.98;;;15.30;57.30;;;;;;6113364;28;20038;-77
2021/03/08 08:55:57;;;;;;;29.20;11.25;;;15.40;57.10;;;;;;6121346;28;20054;-77
2021/03/08 08:59:18;;;;;;;29.63;10.98;;;15.40;56.70;;;;;;6122854;28;20126;-77
2021/03/08 09:02:22;;;;;;;25.85;9.98;;;15.40;56.60;;;;;;6121455;28;20425;-77
2021/03/08 09:05:44;;;;;;;23.48;10.27;;;15.50;56.40;;;;;;6147616;28;20042;-77
2021/03/08 09:08:52;;;;;;;25.05;8.68;;;15.60;56.20;;;;;;6130647;28;20379;-77
2021/03/08 09:12:04;;;;;;;25.50;10.13;;;15.60;55.70;;;;;;6141533;28;20035;-77
2021/03/08 09:15:07;;;;;;;27.35;10.93;;;15.70;55.50;;;;;;6119619;28;20039;-78
2021/03/08 09:18:09;;;;;;;34.13;10.50;;;15.70;55.30;;;;;;6136164;28;20042;-78
2021/03/08 09:21:21;;;;;;;20.63;9.23;;;15.80;55.20;;;;;;6136944;28;20027;-77
2021/03/08 09:24:33;;;;;;;23.20;9.57;;;15.80;54.90;;;;;;6121674;28;20090;-78
2021/03/08 09:27:35;;;;;;;25.10;9.68;;;15.80;54.70;;;;;;6120002;28;20040;-78
2021/03/08 09:30:43;;;;;;;25.30;8.88;;;15.80;54.50;;;;;;6120012;28;20418;-78
2021/03/08 09:33:46;;;;;;;22.70;9.15;;;15.90;54.30;;;;;;6136326;28;20221;-77
2021/03/08 09:36:49;;;;;;;23.83;8.77;;;16.00;54.20;;;;;;6153616;28;20039;-78
2021/03/08 09:39:52;;;;;;;25.83;8.75;;;16.20;53.70;;;;;;6140331;28;20564;-77
2021/03/08 09:42:53;;;;;;;18.90;8.65;;;16.20;53.40;;;;;;6150787;28;20070;-77
2021/03/08 09:46:07;;;;;;;17.65;8.48;;;16.30;53.30;;;;;;6152199;28;20091;-78
2021/03/08 09:49:09;;;;;;;18.90;8.32;;;16.30;53.10;;;;;;6153088;28;20032;-77
2021/03/08 09:52:10;;;;;;;15.82;7.72;;;16.40;52.70;;;;;;6135620;28;20039;-76
2021/03/08 09:55:21;;;;;;;24.00;11.95;;;16.50;52.50;;;;;;6156469;28;20046;-78
2021/03/08 09:58:22;;;;;;;19.15;6.93;;;16.60;52.10;;;;;;6151386;28;20465;-77
2021/03/08 10:01:23;;;;;;;17.38;7.40;;;16.60;51.50;;;;;;6130010;28;20042;-77
2021/03/08 10:04:24;;;;;;;12.02;6.50;;;16.60;51.10;;;;;;6135772;29;20035;-77
2021/03/08 10:07:26;;;;;;;18.25;7.82;;;16.50;51.10;;;;;;6133853;28;20097;-76
2021/03/08 10:10:27;;;;;;;21.58;9.23;;;16.40;51.10;;;;;;6142876;28;20027;-77
2021/03/08 10:13:34;;;;;;;22.98;8.07;;;16.30;51.20;;;;;;6144833;28;20043;-77
2021/03/08 10:16:35;;;;;;;20.70;7.13;;;16.20;51.30;;;;;;6146128;28;20463;-77
2021/03/08 10:19:38;;;;;;;20.75;8.95;;;16.30;51.30;;;;;;6125180;28;20039;-77
2021/03/08 10:22:41;;;;;;;18.85;7.72;;;16.30;51.30;;;;;;6152162;28;20475;-77
2021/03/08 10:25:42;;;;;;;15.52;7.70;;;16.40;51.30;;;;;;6134567;28;20051;-76
2021/03/08 10:28:43;;;;;;;20.65;7.78;;;16.50;51.20;;;;;;6134723;28;20050;-77
2021/03/08 10:31:44;;;;;;;18.33;7.28;;;16.50;51.00;;;;;;6134728;28;20033;-77
2021/03/08 10:34:45;;;;;;;19.10;7.88;;;16.60;50.80;;;;;;6136939;28;20380;-79
2021/03/08 10:37:47;;;;;;;16.40;7.35;;;16.70;50.70;;;;;;6126063;28;20530;-79
2021/03/08 10:40:48;;;;;;;21.60;8.43;;;16.70;50.60;;;;;;6137396;28;20035;-78
2021/03/08 10:43:50;;;;;;;18.70;7.28;;;16.70;50.50;;;;;;6154164;28;20058;-77
2021/03/08 10:46:51;;;;;;;13.70;6.15;;;16.70;50.20;;;;;;6137760;29;20047;-77
2021/03/08 10:49:53;;;;;;;19.05;7.03;;;16.70;50.00;;;;;;6123881;28;20047;-77
2021/03/08 10:53:05;;;;;;;18.15;7.80;;;16.60;50.00;;;;;;6141304;28;20031;-78
2021/03/08 10:56:19;;;;;;;17.20;7.70;;;16.60;50.20;;;;;;6133550;29;20051;-76
2021/03/08 10:59:23;;;;;;;17.85;6.85;;;16.60;50.10;;;;;;6149192;28;20046;-76
2021/03/08 11:02:24;;;;;;;17.90;7.20;;;16.60;50.00;;;;;;6127955;29;20375;-78
2021/03/08 11:05:28;;;;;;;20.92;7.28;;;16.60;50.00;;;;;;6148327;28;20113;-77
2021/03/08 11:08:29;;;;;;;21.30;7.53;;;16.60;49.80;;;;;;6140181;28;20035;-76
2021/03/08 11:11:43;;;;;;;17.77;6.70;;;16.70;49.70;;;;;;6159598;28;20054;-77
2021/03/08 11:14:56;;;;;;;18.17;7.53;;;16.70;49.50;;;;;;6132843;28;20031;-78
2021/03/08 11:17:57;;;;;;;26.25;7.85;;;16.90;49.30;;;;;;6156391;28;20454;-78
2021/03/08 11:21:18;;;;;;;25.27;7.38;;;17.20;48.90;;;;;;6154173;28;20457;-79
2021/03/08 11:24:21;;;;;;;16.85;6.57;;;17.60;48.40;;;;;;6146080;28;20042;-77
2021/03/08 11:27:28;;;;;;;17.33;7.60;;;17.90;47.60;;;;;;6135691;28;20174;-77
2021/03/08 11:30:30;;;;;;;20.35;7.55;;;18.20;47.10;;;;;;6134833;28;20039;-77
2021/03/08 11:33:35;;;;;;;15.07;7.00;;;18.60;46.50;;;;;;6121690;28;20182;-77
2021/03/08 11:36:39;;;;;;;14.80;6.32;;;19.10;45.30;;;;;;6119536;28;20102;-77
2021/03/08 11:39:46;;;;;;;17.98;7.07;;;19.70;44.50;;;;;;6113333;28;20040;-77
2021/03/08 11:42:47;;;;;;;13.65;6.70;;;20.00;43.40;;;;;;6141905;28;20047;-77
2021/03/08 11:45:52;;;;;;;15.18;6.43;;;20.20;42.90;;;;;;6127213;29;20042;-77
2021/03/08 11:49:01;;;;;;;20.85;7.60;;;20.20;42.20;;;;;;6165038;28;20035;-78
2021/03/08 11:52:02;;;;;;;18.52;6.53;;;20.10;42.10;;;;;;6159830;28;20039;-78
2021/03/08 11:55:04;;;;;;;19.10;6.05;;;19.90;41.90;;;;;;6174838;28;20061;-77
2021/03/08 11:58:05;;;;;;;10.88;5.65;;;19.70;42.00;;;;;;6155649;28;20372;-77
2021/03/08 12:01:06;;;;;;;12.63;5.88;;;19.50;42.10;;;;;;6156040;28;20069;-79
2021/03/08 12:04:07;;;;;;;13.23;5.88;;;19.30;42.30;;;;;;6135073;28;20150;-76
2021/03/08 12:07:08;;;;;;;16.08;6.00;;;19.10;42.50;;;;;;6141491;28;20051;-77
2021/03/08 12:10:11;;;;;;;13.75;6.80;;;19.00;42.60;;;;;;6148887;28;20043;-78
2021/03/08 12:13:12;;;;;;;19.40;6.75;;;18.80;42.90;;;;;;6132470;28;20081;-78
2021/03/08 12:16:13;;;;;;;18.67;6.85;;;19.20;42.70;;;;;;6132270;28;20039;-77
2021/03/08 12:19:15;;;;;;;12.60;6.18;;;19.30;42.00;;;;;;6117314;29;20488;-78
2021/03/08 12:22:17;;;;;;;16.27;6.65;;;19.40;41.80;;;;;;6127053;29;20101;-77
2021/03/08 12:25:18;;;;;;;14.00;6.60;;;19.60;41.40;;;;;;6135128;28;20046;-77
2021/03/08 12:28:19;;;;;;;14.70;6.38;;;19.60;41.10;;;;;;6136262;28;20377;-77
2021/03/08 12:31:20;;;;;;;16.92;6.78;;;19.70;41.00;;;;;;6149404;28;20034;-77
2021/03/08 12:34:21;;;;;;;15.75;5.60;;;20.10;40.40;;;;;;6123175;28;20053;-77
2021/03/08 12:37:22;;;;;;;16.05;6.07;;;20.30;39.80;;;;;;6116927;28;20047;-79
2021/03/08 12:40:23;;;;;;;18.50;6.50;;;20.50;39.30;;;;;;6115522;28;20046;-79
2021/03/08 12:43:24;;;;;;;16.13;6.70;;;20.20;39.40;;;;;;6132124;29;20054;-77
2021/03/08 12:46:25;;;;;;;13.98;6.13;;;20.40;39.60;;;;;;6115924;28;20035;-77
2021/03/08 12:49:26;;;;;;;19.50;7.45;;;21.00;38.50;;;;;;6142560;28;20346;-78
2021/03/08 12:52:27;;;;;;;15.82;6.20;;;21.00;37.90;;;;;;6131800;28;20043;-77
2021/03/08 12:55:28;;;;;;;18.95;6.05;;;20.60;38.50;;;;;;6133466;28;20410;-77
2021/03/08 12:58:30;;;;;;;22.13;6.07;;;20.20;39.30;;;;;;6141543;28;20076;-77
2021/03/08 13:01:31;;;;;;;19.00;6.68;;;19.80;39.80;;;;;;6115739;28;20046;-77
2021/03/08 13:04:32;;;;;;;11.45;5.97;;;19.50;40.30;;;;;;6133772;28;20058;-77
2021/03/08 13:07:33;;;;;;;15.02;6.22;;;19.40;40.70;;;;;;6122428;28;20051;-77
2021/03/08 13:10:34;;;;;;;15.63;5.70;;;19.70;40.60;;;;;;6118457;29;20390;-76
2021/03/08 13:13:35;;;;;;;20.15;6.10;;;20.00;39.60;;;;;;6115618;29;20066;-79
2021/03/08 13:16:36;;;;;;;13.93;5.75;;;20.00;39.40;;;;;;6137317;28;20028;-76
2021/03/08 13:19:37;;;;;;;12.65;5.70;;;19.80;39.70;;;;;;6131343;29;20031;-77
2021/03/08 13:22:40;;;;;;;11.10;5.50;;;19.80;40.00;;;;;;6106115;29;20032;-77
2021/03/08 13:25:42;;;;;;;17.35;5.82;;;19.40;40.20;;;;;;6114894;29;20429;-78
2021/03/08 13:28:43;;;;;;;15.40;5.45;;;19.10;40.60;;;;;;6121537;29;20035;-77
2021/03/08 13:31:44;;;;;;;18.48;5.55;;;18.80;41.10;;;;;;6149342;29;20114;-77
2021/03/08 13:34:45;;;;;;;15.18;6.32;;;18.70;41.60;;;;;;6129927;29;20039;-76
2021/03/08 13:37:46;;;;;;;16.55;7.00;;;18.50;41.90;;;;;;6120245;28;20451;-77
2021/03/08 13:40:51;;;;;;;22.55;6.60;;;18.40;42.00;;;;;;6131099;28;20047;-77
2021/03/08 13:43:52;;;;;;;17.40;6.05;;;18.30;42.30;;;;;;6148237;28;20098;-77
2021/03/08 13:46:53;;;;;;;18.17;6.82;;;18.30;42.30;;;;;;6131186;29;20047;-78
2021/03/08 13:49:54;;;;;;;17.67;6.40;;;18.20;42.40;;;;;;6123645;28;20050;-78
2021/03/08 13:52:55;;;;;;;18.92;6.07;;;18.10;42.40;;;;;;6119927;28;20084;-78
2021/03/08 13:55:56;;;;;;;19.83;6.50;;;18.10;42.60;;;;;;6123985;28;20036;-78
2021/03/08 13:58:57;;;;;;;16.02;6.57;;;18.00;42.70;;;;;;6125692;29;20098;-78
2021/03/08 14:01:57;;;;;;;20.40;6.95;;;18.00;42.90;;;;;;6134771;29;20047;-77
2021/03/08 14:04:58;;;;;;;20.85;7.93;;;18.00;43.00;;;;;;6110597;29;20039;-77
2021/03/08 14:07:59;;;;;;;16.70;6.75;;;17.90;43.10;;;;;;6111367;29;20040;-76
2021/03/08 14:11:00;;;;;;;8.13;4.03;;;17.80;43.10;;;;;;6110936;29;20382;-77
2021/03/08 14:14:01;;;;;;;12.82;6.20;;;17.70;42.90;;;;;;6122868;29;20118;-78
2021/03/08 14:17:02;;;;;;;20.00;6.28;;;17.60;43.00;;;;;;6127768;29;20071;-76
2021/03/08 14:20:05;;;;;;;13.15;6.38;;;17.60;43.20;;;;;;6111224;29;20040;-77
2021/03/08 14:23:06;;;;;;;18.83;5.70;;;17.80;43.30;;;;;;6100510;29;20044;-77
2021/03/08 14:26:07;;;;;;;22.75;6.18;;;17.90;42.90;;;;;;6125210;29;20040;-77
2021/03/08 14:29:09;;;;;;;14.25;5.95;;;18.10;42.40;;;;;;6127199;29;20059;-77
2021/03/08 14:32:16;;;;;;;18.85;6.85;;;18.10;42.20;;;;;;6110733;29;20046;-78
2021/03/08 14:35:16;;;;;;;12.60;5.70;;;18.10;42.00;;;;;;6124319;29;20357;-77
2021/03/08 14:38:18;;;;;;;18.75;6.30;;;18.00;41.90;;;;;;6125545;29;20036;-77
2021/03/08 14:41:20;;;;;;;17.52;5.65;;;18.00;41.90;;;;;;6110011;29;20105;-78
2021/03/08 14:44:22;;;;;;;18.25;5.55;;;17.90;42.00;;;;;;6129193;29;20481;-77
2021/03/08 14:47:23;;;;;;;16.38;5.72;;;17.80;41.90;;;;;;6131569;29;20028;-78
2021/03/08 14:50:24;;;;;;;15.25;5.88;;;17.70;42.10;;;;;;6131247;29;20050;-77
2021/03/08 14:53:25;;;;;;;23.52;6.70;;;17.60;42.40;;;;;;6138430;29;20032;-77
2021/03/08 14:56:28;;;;;;;15.13;6.47;;;17.50;42.70;;;;;;6146244;29;20076;-77
2021/03/08 14:59:29;;;;;;;15.32;5.80;;;17.50;43.00;;;;;;6118101;29;20047;-77
2021/03/08 15:02:31;;;;;;;11.40;5.93;;;17.50;43.10;;;;;;6130350;29;20393;-78
2021/03/08 15:05:33;;;;;;;10.88;5.50;;;17.40;43.40;;;;;;6133419;28;20062;-78
2021/03/08 15:08:34;;;;;;;16.05;6.22;;;17.40;43.40;;;;;;6135054;29;20047;-77
2021/03/08 15:11:34;;;;;;;12.38;5.78;;;17.30;43.50;;;;;;6130718;29;20039;-77
2021/03/08 15:14:35;;;;;;;12.05;5.32;;;17.20;43.60;;;;;;6128465;29;20046;-78
2021/03/08 15:17:39;;;;;;;18.65;6.68;;;17.20;43.70;;;;;;6128242;29;20031;-76
2021/03/08 15:20:40;;;;;;;17.48;6.82;;;17.00;43.80;;;;;;6128256;29;20075;-78
2021/03/08 15:23:41;;;;;;;17.92;6.15;;;16.90;44.00;;;;;;6126648;29;20477;-78
2021/03/08 15:26:42;;;;;;;21.15;6.32;;;16.80;44.10;;;;;;6127858;29;20365;-78
2021/03/08 15:29:44;;;;;;;17.65;6.35;;;16.80;44.40;;;;;;6110781;29;20043;-77
2021/03/08 15:32:45;;;;;;;13.98;5.28;;;16.80;44.50;;;;;;6127751;29;20362;-77
2021/03/08 15:35:46;;;;;;;25.17;7.45;;;16.80;44.50;;;;;;6125817;29;20062;-77
2021/03/08 15:38:47;;;;;;;12.02;4.97;;;16.80;44.70;;;;;;6128396;29;20035;-78
2021/03/08 15:41:48;;;;;;;14.43;6.75;;;16.70;44.80;;;;;;6105692;29;20036;-77